createdAt,value
2023-02-02T00:01:35.999Z,96171.06
2023-02-02T00:06:45.453Z,96183.53
2023-02-02T00:11:48.920Z,96173.59
2023-02-02T00:16:55.783Z,96182.28
2023-02-02T00:21:58.951Z,96194.63
2023-02-02T00:27:01.274Z,96186.91
2023-02-02T00:32:03.729Z,96216.34
2023-02-02T00:37:06.191Z,96214.28
2023-02-02T00:42:16.690Z,96221.34
2023-02-02T00:47:22.699Z,96212.78
2023-02-02T00:52:24.928Z,96213.34
2023-02-02T00:57:26.947Z,96196.91
2023-02-02T01:02:29.197Z,96186.69
2023-02-02T01:07:31.563Z,96196.75
2023-02-02T01:12:33.829Z,96164.75
2023-02-02T01:17:35.953Z,96190.31
2023-02-02T01:22:38.950Z,96164.81
2023-02-02T01:27:42.938Z,96170.47
2023-02-02T01:32:45.536Z,96169.09
2023-02-02T01:37:47.920Z,96157.31
2023-02-02T01:42:50.089Z,96162.41
2023-02-02T01:47:56.665Z,96152.97
2023-02-02T01:53:02.291Z,96147.09
2023-02-02T01:58:11.650Z,96135.13
2023-02-02T02:03:17.228Z,96140.59
2023-02-02T02:08:27.323Z,96125.06
2023-02-02T02:13:50.118Z,96111.44
2023-02-02T02:19:31.311Z,96135.00
2023-02-02T02:25:46.939Z,96123.28
2023-02-02T02:30:55.523Z,96115.38
2023-02-02T02:36:11.156Z,96118.94
2023-02-02T02:41:23.374Z,96103.44
2023-02-02T02:46:26.893Z,96118.41
2023-02-02T02:51:47.396Z,96127.44
2023-02-02T02:57:11.064Z,96092.50
2023-02-02T03:02:29.307Z,96124.69
2023-02-02T03:07:42.561Z,96111.69
2023-02-02T03:12:50.125Z,96133.94
2023-02-02T03:17:54.289Z,96132.69
2023-02-02T03:22:56.806Z,96139.00
2023-02-02T03:27:59.486Z,96135.53
2023-02-02T03:33:01.790Z,96137.72
2023-02-02T03:38:04.381Z,96135.47
2023-02-02T03:43:06.683Z,96126.75
2023-02-02T03:48:09.017Z,96126.84
2023-02-02T03:53:11.273Z,96129.69
2023-02-02T03:58:13.483Z,96131.94
2023-02-02T04:03:15.555Z,96127.06
2023-02-02T04:08:17.751Z,96129.63
2023-02-02T04:13:20.174Z,96122.19
2023-02-02T04:18:22.489Z,96119.94
2023-02-02T04:23:25.039Z,96141.69
2023-02-02T04:28:28.321Z,96149.06
2023-02-02T04:33:30.603Z,96159.00
2023-02-02T04:38:32.815Z,96139.72
2023-02-02T04:43:36.718Z,96157.91
2023-02-02T04:48:41.298Z,96135.59
2023-02-02T04:53:43.670Z,96149.63
2023-02-02T04:58:46.377Z,96151.56
2023-02-02T05:03:49.715Z,96129.22
2023-02-02T05:08:52.196Z,96136.25
2023-02-02T05:13:55.387Z,96125.91
2023-02-02T05:18:59.652Z,96140.06
2023-02-02T05:24:03.116Z,96149.56
2023-02-02T05:29:07.039Z,96140.91
2023-02-02T05:34:11.736Z,96166.59
2023-02-02T05:39:14.000Z,96153.50
2023-02-02T05:44:16.499Z,96161.50
2023-02-02T05:49:18.511Z,96165.56
2023-02-02T05:54:20.798Z,96187.19
2023-02-02T05:59:23.527Z,96177.22
2023-02-02T06:04:26.106Z,96174.16
2023-02-02T06:09:28.188Z,96185.94
2023-02-02T06:14:30.390Z,96191.78
2023-02-02T06:19:32.969Z,96196.41
2023-02-02T06:24:35.360Z,96183.84
2023-02-02T06:29:44.941Z,96207.41
2023-02-02T06:34:47.096Z,96204.84
2023-02-02T06:39:49.373Z,96190.09
2023-02-02T06:44:51.496Z,96172.16
2023-02-02T06:49:53.768Z,96198.31
2023-02-02T06:54:56.043Z,96205.69
2023-02-02T06:59:58.292Z,96197.50
2023-02-02T07:05:00.477Z,96196.94
2023-02-02T07:10:02.657Z,96204.03
2023-02-02T07:15:05.433Z,96202.75
2023-02-02T07:20:08.048Z,96189.41
2023-02-02T07:25:10.460Z,96211.44
2023-02-02T07:30:12.877Z,96181.84
2023-02-02T07:35:16.111Z,96204.25
2023-02-02T07:40:18.652Z,96163.56
2023-02-02T07:45:26.868Z,96187.03
2023-02-02T07:50:38.401Z,96195.31
2023-02-02T07:55:40.696Z,96182.59
2023-02-02T08:00:42.956Z,96200.31
2023-02-02T08:05:45.336Z,96187.91
2023-02-02T08:10:51.787Z,96173.19
2023-02-02T08:15:54.104Z,96174.22
2023-02-02T08:20:59.638Z,96170.13
2023-02-02T08:26:09.775Z,96206.28
2023-02-02T08:31:15.513Z,96181.84
2023-02-02T08:36:19.872Z,96184.00
2023-02-02T08:41:24.241Z,96190.19
2023-02-02T08:46:26.833Z,96144.34
2023-02-02T08:51:28.996Z,96156.06
2023-02-02T08:56:31.153Z,96137.22
2023-02-02T09:01:34.741Z,96131.16
2023-02-02T09:06:42.614Z,96119.28
2023-02-02T09:11:45.373Z,96143.56
2023-02-02T09:16:47.549Z,96116.28
2023-02-02T09:21:50.676Z,96107.38
2023-02-02T09:26:53.204Z,96097.53
2023-02-02T09:31:55.590Z,96125.03
2023-02-02T09:36:57.852Z,96089.69
2023-02-02T09:42:05.306Z,96099.81
2023-02-02T09:47:24.250Z,96050.75
2023-02-02T09:52:35.626Z,96083.56
2023-02-02T09:57:48.257Z,96088.56
2023-02-02T10:02:54.014Z,96081.22
2023-02-02T10:08:02.904Z,96104.72
2023-02-02T10:13:14.200Z,96078.41
2023-02-02T10:18:39.813Z,96082.75
2023-02-02T10:23:46.012Z,96061.00
2023-02-02T10:29:40.044Z,96059.78
2023-02-02T10:35:17.737Z,96060.28
2023-02-02T10:40:44.401Z,96052.34
2023-02-02T10:45:50.513Z,96052.19
2023-02-02T10:50:56.925Z,96059.09
2023-02-02T10:56:11.948Z,96036.63
2023-02-02T11:01:18.394Z,96023.38
2023-02-02T11:06:39.392Z,95996.81
2023-02-02T11:11:47.283Z,96004.38
2023-02-02T11:17:06.010Z,96007.81
2023-02-02T11:22:29.419Z,96007.91
2023-02-02T11:27:35.779Z,95981.06
2023-02-02T11:32:38.315Z,95988.13
2023-02-02T11:37:58.759Z,95964.78
2023-02-02T11:43:05.411Z,95946.16
2023-02-02T11:48:18.381Z,95949.91
2023-02-02T11:53:48.001Z,95954.59
2023-02-02T11:58:53.431Z,95944.56
2023-02-02T12:04:01.888Z,95937.47
2023-02-02T12:09:13.144Z,95931.44
2023-02-02T12:14:40.040Z,95930.75
2023-02-02T12:20:13.237Z,95924.59
2023-02-02T12:25:15.581Z,95921.13
2023-02-02T12:30:34.529Z,95903.13
2023-02-02T12:36:08.702Z,95906.38
2023-02-02T12:41:43.276Z,95907.19
2023-02-02T12:47:05.297Z,95923.34
2023-02-02T12:52:28.781Z,95953.09
2023-02-02T12:57:37.019Z,96060.34
2023-02-02T13:02:49.820Z,96103.56
2023-02-02T13:07:58.464Z,96094.00
2023-02-02T13:13:08.704Z,96108.06
2023-02-02T13:18:45.781Z,96071.41
2023-02-02T13:23:51.517Z,96025.78
2023-02-02T13:29:09.962Z,96042.47
2023-02-02T13:34:18.643Z,96060.75
2023-02-02T13:39:44.081Z,96055.84
2023-02-02T13:44:59.304Z,96062.50
2023-02-02T13:50:11.582Z,96067.41
2023-02-02T13:55:38.490Z,96102.47
2023-02-02T14:00:47.939Z,96123.88
2023-02-02T14:06:15.065Z,96146.34
2023-02-02T14:11:24.284Z,96169.91
2023-02-02T14:16:35.751Z,96178.53
2023-02-02T14:21:38.013Z,96186.97
2023-02-02T14:26:52.190Z,96189.03
2023-02-02T14:31:56.349Z,96206.56
2023-02-02T14:37:09.448Z,96224.31
2023-02-02T14:42:36.073Z,96211.09
2023-02-02T14:47:45.827Z,96253.06
2023-02-02T14:53:02.520Z,96254.63
2023-02-02T14:58:07.073Z,96244.06
2023-02-02T15:03:47.152Z,96240.41
2023-02-02T15:09:26.871Z,96229.78
2023-02-02T15:14:51.737Z,96238.59
2023-02-02T15:20:10.197Z,96205.94
2023-02-02T15:25:36.303Z,96200.69
2023-02-02T15:30:45.025Z,96212.44
2023-02-02T15:35:48.561Z,96188.75
2023-02-02T15:40:51.214Z,96199.75
2023-02-02T15:46:02.008Z,96209.69
2023-02-02T15:51:07.825Z,96186.19
2023-02-02T15:56:25.364Z,96193.59
2023-02-02T16:01:33.452Z,96146.78
2023-02-02T16:06:36.376Z,96202.94
2023-02-02T16:11:43.580Z,96198.41
2023-02-02T16:16:49.540Z,96219.97
2023-02-02T16:21:59.546Z,96221.38
2023-02-02T16:27:12.751Z,96223.81
2023-02-02T16:32:32.826Z,96239.72
2023-02-02T16:37:36.770Z,96233.75
2023-02-02T16:42:38.811Z,96206.63
2023-02-02T16:47:40.968Z,96212.03
2023-02-02T16:53:04.623Z,96233.53
2023-02-02T16:58:07.537Z,96241.22
2023-02-02T17:03:13.074Z,96236.06
2023-02-02T17:08:25.491Z,96272.44
2023-02-02T17:13:30.567Z,96269.91
2023-02-02T17:18:32.762Z,96238.16
2023-02-02T17:23:37.372Z,96244.88
2023-02-02T17:28:41.913Z,96251.84
2023-02-02T17:33:44.423Z,96227.38
2023-02-02T17:38:46.678Z,96227.06
2023-02-02T17:43:49.148Z,96228.00
2023-02-02T17:48:51.396Z,96262.94
2023-02-02T17:53:57.848Z,96290.44
2023-02-02T17:59:00.221Z,96274.50
2023-02-02T18:04:02.425Z,96315.50
2023-02-02T18:09:04.577Z,96322.56
2023-02-02T18:14:06.889Z,96287.47
2023-02-02T18:19:09.133Z,96296.81
2023-02-02T18:24:15.452Z,96293.47
2023-02-02T18:29:17.632Z,96286.91
2023-02-02T18:34:19.921Z,96308.97
2023-02-02T18:39:22.394Z,96326.09
2023-02-02T18:44:24.820Z,96315.03
2023-02-02T18:49:27.101Z,96316.03
2023-02-02T18:54:29.996Z,96264.88
2023-02-02T18:59:32.558Z,96291.06
2023-02-02T19:04:35.019Z,96290.47
2023-02-02T19:09:37.385Z,96275.22
2023-02-02T19:14:40.097Z,96284.66
2023-02-02T19:19:43.243Z,96291.25
2023-02-02T19:24:45.412Z,96297.66
2023-02-02T19:29:51.038Z,96327.50
2023-02-02T19:34:55.636Z,96336.75
2023-02-02T19:40:16.251Z,96344.47
2023-02-02T19:45:23.168Z,96342.75
2023-02-02T19:50:28.659Z,96346.22
2023-02-02T19:55:36.703Z,96352.28
2023-02-02T20:00:41.264Z,96326.13
2023-02-02T20:05:46.927Z,96348.06
2023-02-02T20:10:50.320Z,96340.91
2023-02-02T20:16:03.740Z,96328.13
2023-02-02T20:27:34.642Z,96328.34
2023-02-02T20:32:41.500Z,96315.31
2023-02-02T20:37:44.154Z,96321.78
2023-02-02T20:42:46.951Z,96333.91
2023-02-02T20:47:50.036Z,96310.91
2023-02-02T20:52:53.824Z,96322.97
2023-02-02T20:57:56.078Z,96329.03
2023-02-02T21:02:58.647Z,96347.00
2023-02-02T21:08:01.020Z,96330.97
2023-02-02T21:13:03.228Z,96303.88
2023-02-02T21:18:05.638Z,96345.44
2023-02-02T21:23:10.468Z,96372.28
2023-02-02T21:28:12.684Z,96320.31
2023-02-02T21:33:15.013Z,96361.31
2023-02-02T21:38:17.245Z,96335.25
2023-02-02T21:43:20.040Z,96318.91
2023-02-02T21:48:34.996Z,96321.38
2023-02-02T21:53:37.896Z,96332.50
2023-02-02T21:58:40.308Z,96336.59
2023-02-02T22:03:46.966Z,96352.47
2023-02-02T22:08:50.011Z,96352.69
2023-02-02T22:13:54.282Z,96308.59
2023-02-02T22:18:56.372Z,96371.78
2023-02-02T22:24:00.711Z,96347.69
2023-02-02T22:29:14.583Z,96346.78
2023-02-02T22:34:16.946Z,96301.41
2023-02-02T22:39:19.450Z,96310.06
2023-02-02T22:44:21.943Z,96340.41
2023-02-02T22:49:24.040Z,96315.28
2023-02-02T22:54:26.376Z,96341.25
2023-02-02T22:59:28.698Z,96335.53
2023-02-02T23:04:31.113Z,96332.63
2023-02-02T23:09:33.426Z,96333.41
2023-02-02T23:14:35.780Z,96351.25
2023-02-02T23:19:45.692Z,96294.69
2023-02-02T23:24:50.336Z,96312.88
2023-02-02T23:29:58.846Z,96310.47
2023-02-02T23:35:01.356Z,96311.88
2023-02-02T23:40:03.685Z,96284.84
2023-02-02T23:45:06.495Z,96334.66
2023-02-02T23:50:09.941Z,96283.34
2023-02-02T23:55:12.493Z,96326.06
